UAL2124 KSFO-KACV
Flight info
| Callsign | UAL2124 |
|---|---|
| Flight time | 0h 42m |
| Altitude | 32000 |
| Route | TRUKN2 GRTFL DALON YAGER ACV |
| Aircraft | B736/M-SDE2E3FGHIRWXY/LB1 |
Departure
| Time | 2026-04-22 03:29 |
|---|---|
| Airport | San Francisco International Airport (KSFO) |
Arrival
| Time | 2026-04-22 04:11 |
|---|---|
| Airport | California Redwood Coast-Humboldt County Airport (KACV) |
| Time | Latitude | Longitude | Altitude | Speed | Heading |
|---|---|---|---|---|---|
| 2026-04-22 03:09 | 37.61906 | -122.38629 | 2 ft | 0 kts | 224° |
| 2026-04-22 03:17 | 37.61912 | -122.38622 | 21 ft | 4 kts | 225° |
| 2026-04-22 03:17 | 37.61931 | -122.38598 | 22 ft | 4 kts | 225° |
| 2026-04-22 03:18 | 37.61950 | -122.38573 | 21 ft | 4 kts | 225° |
| 2026-04-22 03:18 | 37.61957 | -122.38565 | 24 ft | 0 kts | 225° |
| 2026-04-22 03:21 | 37.61956 | -122.38565 | 24 ft | 0 kts | 230° |
| 2026-04-22 03:21 | 37.61957 | -122.38569 | 24 ft | 0 kts | 268° |
| 2026-04-22 03:21 | 37.61961 | -122.38571 | 24 ft | 1 kts | 323° |
| 2026-04-22 03:21 | 37.61968 | -122.38568 | 24 ft | 2 kts | 20° |
| 2026-04-22 03:22 | 37.62003 | -122.38537 | 21 ft | 9 kts | 31° |
| 2026-04-22 03:22 | 37.62058 | -122.38491 | 23 ft | 10 kts | 51° |
| 2026-04-22 03:22 | 37.62054 | -122.38414 | 23 ft | 9 kts | 117° |
| 2026-04-22 03:22 | 37.62025 | -122.38342 | 23 ft | 9 kts | 117° |
| 2026-04-22 03:23 | 37.61996 | -122.38274 | 22 ft | 9 kts | 119° |
| 2026-04-22 03:23 | 37.61968 | -122.38206 | 21 ft | 9 kts | 116° |
| 2026-04-22 03:23 | 37.61941 | -122.38141 | 21 ft | 8 kts | 118° |
| 2026-04-22 03:23 | 37.61913 | -122.38075 | 21 ft | 9 kts | 119° |
| 2026-04-22 03:24 | 37.61877 | -122.37994 | 23 ft | 12 kts | 118° |
| 2026-04-22 03:24 | 37.61836 | -122.37891 | 21 ft | 14 kts | 113° |
| 2026-04-22 03:24 | 37.61811 | -122.37811 | 21 ft | 15 kts | 110° |
| 2026-04-22 03:24 | 37.61775 | -122.37691 | 21 ft | 14 kts | 111° |
| 2026-04-22 03:25 | 37.61738 | -122.37572 | 21 ft | 16 kts | 111° |
| 2026-04-22 03:25 | 37.61687 | -122.37434 | 21 ft | 19 kts | 118° |
| 2026-04-22 03:25 | 37.61619 | -122.37275 | 22 ft | 22 kts | 118° |
| 2026-04-22 03:25 | 37.61545 | -122.37098 | 22 ft | 23 kts | 117° |
| 2026-04-22 03:26 | 37.61468 | -122.36926 | 22 ft | 22 kts | 127° |
| 2026-04-22 03:26 | 37.61368 | -122.36781 | 21 ft | 22 kts | 124° |
| 2026-04-22 03:26 | 37.61296 | -122.36618 | 22 ft | 21 kts | 119° |
| 2026-04-22 03:26 | 37.61229 | -122.36458 | 21 ft | 20 kts | 117° |
| 2026-04-22 03:27 | 37.61164 | -122.36302 | 21 ft | 20 kts | 118° |
| 2026-04-22 03:27 | 37.61104 | -122.36156 | 21 ft | 9 kts | 114° |
| 2026-04-22 03:27 | 37.61119 | -122.36096 | 23 ft | 8 kts | 35° |
| 2026-04-22 03:27 | 37.61176 | -122.36056 | 21 ft | 11 kts | 28° |
| 2026-04-22 03:28 | 37.61250 | -122.36038 | 22 ft | 11 kts | 329° |
| 2026-04-22 03:28 | 37.61310 | -122.36169 | 23 ft | 36 kts | 297° |
| 2026-04-22 03:28 | 37.61534 | -122.36702 | 21 ft | 100 kts | 297° |
| 2026-04-22 03:28 | 37.61939 | -122.37669 | 48 ft | 144 kts | 297° |
| 2026-04-22 03:29 | 37.62414 | -122.38799 | 542 ft | 146 kts | 295° |
| 2026-04-22 03:29 | 37.62883 | -122.39960 | 1087 ft | 152 kts | 303° |
| 2026-04-22 03:29 | 37.63833 | -122.40693 | 1685 ft | 175 kts | 353° |
| 2026-04-22 03:29 | 37.64962 | -122.40138 | 2617 ft | 186 kts | 43° |
| 2026-04-22 03:30 | 37.65585 | -122.38714 | 3493 ft | 189 kts | 66° |
| 2026-04-22 03:30 | 37.66139 | -122.37061 | 3888 ft | 220 kts | 65° |
| 2026-04-22 03:30 | 37.66793 | -122.35175 | 4165 ft | 249 kts | 65° |
| 2026-04-22 03:30 | 37.67523 | -122.33111 | 4637 ft | 271 kts | 65° |
| 2026-04-22 03:31 | 37.68329 | -122.30869 | 5286 ft | 286 kts | 65° |
| 2026-04-22 03:31 | 37.69162 | -122.28576 | 6311 ft | 287 kts | 65° |
| 2026-04-22 03:31 | 37.70002 | -122.26270 | 7271 ft | 291 kts | 65° |
| 2026-04-22 03:31 | 37.70911 | -122.23963 | 8132 ft | 297 kts | 54° |
| 2026-04-22 03:32 | 37.72471 | -122.22279 | 9017 ft | 295 kts | 24° |
| 2026-04-22 03:32 | 37.74395 | -122.21491 | 9732 ft | 290 kts | 1° |
| 2026-04-22 03:32 | 37.76411 | -122.21437 | 10035 ft | 289 kts | 355° |
| 2026-04-22 03:32 | 37.78434 | -122.21499 | 10146 ft | 306 kts | 354° |
| 2026-04-22 03:33 | 37.80655 | -122.21599 | 10371 ft | 333 kts | 354° |
| 2026-04-22 03:33 | 37.83032 | -122.21700 | 10858 ft | 348 kts | 354° |
| 2026-04-22 03:33 | 37.85479 | -122.21789 | 11659 ft | 353 kts | 355° |
| 2026-04-22 03:33 | 37.87929 | -122.21865 | 12538 ft | 356 kts | 355° |
| 2026-04-22 03:34 | 37.90436 | -122.21936 | 13434 ft | 360 kts | 355° |
| 2026-04-22 03:34 | 37.92961 | -122.22005 | 14182 ft | 366 kts | 355° |
| 2026-04-22 03:34 | 37.95528 | -122.22073 | 14966 ft | 371 kts | 355° |
| 2026-04-22 03:34 | 37.98120 | -122.22141 | 15788 ft | 374 kts | 355° |
| 2026-04-22 03:35 | 38.00725 | -122.22207 | 16710 ft | 375 kts | 355° |
| 2026-04-22 03:35 | 38.03345 | -122.22275 | 17553 ft | 379 kts | 355° |
| 2026-04-22 03:35 | 38.06013 | -122.22344 | 18315 ft | 385 kts | 355° |
| 2026-04-22 03:35 | 38.08706 | -122.22414 | 19027 ft | 388 kts | 354° |
| 2026-04-22 03:36 | 38.11412 | -122.22484 | 19801 ft | 390 kts | 354° |
| 2026-04-22 03:36 | 38.14128 | -122.22554 | 20587 ft | 391 kts | 353° |
| 2026-04-22 03:36 | 38.16861 | -122.22625 | 21331 ft | 394 kts | 353° |
| 2026-04-22 03:36 | 38.19611 | -122.22697 | 22048 ft | 397 kts | 352° |
| 2026-04-22 03:37 | 38.22389 | -122.22770 | 22781 ft | 400 kts | 352° |
| 2026-04-22 03:37 | 38.25188 | -122.22843 | 23514 ft | 403 kts | 351° |
| 2026-04-22 03:37 | 38.28003 | -122.22915 | 24118 ft | 406 kts | 351° |
| 2026-04-22 03:37 | 38.30850 | -122.22991 | 24588 ft | 413 kts | 352° |
| 2026-04-22 03:38 | 38.33745 | -122.23068 | 25057 ft | 418 kts | 352° |
| 2026-04-22 03:38 | 38.36640 | -122.23151 | 25658 ft | 419 kts | 351° |
| 2026-04-22 03:38 | 38.39575 | -122.23277 | 26255 ft | 420 kts | 349° |
| 2026-04-22 03:38 | 38.42505 | -122.23437 | 26799 ft | 422 kts | 349° |
| 2026-04-22 03:39 | 38.45450 | -122.23590 | 27282 ft | 426 kts | 349° |
| 2026-04-22 03:39 | 38.48421 | -122.23741 | 27779 ft | 429 kts | 348° |
| 2026-04-22 03:39 | 38.51420 | -122.23890 | 28174 ft | 436 kts | 350° |
| 2026-04-22 03:39 | 38.54479 | -122.24042 | 28499 ft | 441 kts | 350° |
| 2026-04-22 03:40 | 38.57555 | -122.24193 | 29022 ft | 443 kts | 349° |
| 2026-04-22 03:40 | 38.60637 | -122.24343 | 29547 ft | 444 kts | 349° |
| 2026-04-22 03:40 | 38.63728 | -122.24492 | 30023 ft | 446 kts | 349° |
| 2026-04-22 03:40 | 38.66827 | -122.24641 | 30465 ft | 446 kts | 349° |
| 2026-04-22 03:41 | 38.69931 | -122.24788 | 30901 ft | 448 kts | 351° |
| 2026-04-22 03:41 | 38.73067 | -122.24941 | 31171 ft | 453 kts | 351° |
| 2026-04-22 03:41 | 38.76179 | -122.25094 | 31582 ft | 453 kts | 351° |
| 2026-04-22 03:41 | 38.79326 | -122.25236 | 32007 ft | 454 kts | 351° |
| 2026-04-22 03:42 | 38.85634 | -122.25548 | 32005 ft | 452 kts | 351° |
| 2026-04-22 03:42 | 38.91919 | -122.25865 | 32024 ft | 454 kts | 352° |
| 2026-04-22 03:43 | 38.98261 | -122.26176 | 32023 ft | 458 kts | 352° |
| 2026-04-22 03:43 | 39.04595 | -122.26808 | 32005 ft | 451 kts | 341° |
| 2026-04-22 03:44 | 39.10244 | -122.29918 | 32015 ft | 438 kts | 321° |
| 2026-04-22 03:44 | 39.14995 | -122.34738 | 32015 ft | 435 kts | 316° |
| 2026-04-22 03:45 | 39.19652 | -122.39560 | 31998 ft | 425 kts | 316° |
| 2026-04-22 03:45 | 39.24274 | -122.44323 | 32013 ft | 428 kts | 317° |
| 2026-04-22 03:46 | 39.28964 | -122.49144 | 31999 ft | 433 kts | 317° |
| 2026-04-22 03:46 | 39.33684 | -122.53991 | 32005 ft | 436 kts | 317° |
| 2026-04-22 03:47 | 39.38451 | -122.58893 | 32009 ft | 438 kts | 317° |
| 2026-04-22 03:47 | 39.43213 | -122.63800 | 32014 ft | 435 kts | 317° |
| 2026-04-22 03:48 | 39.47884 | -122.68615 | 32009 ft | 427 kts | 317° |
| 2026-04-22 03:48 | 39.52539 | -122.73433 | 32037 ft | 430 kts | 317° |
| 2026-04-22 03:49 | 39.57247 | -122.78316 | 32021 ft | 436 kts | 317° |
| 2026-04-22 03:49 | 39.62010 | -122.83261 | 32024 ft | 440 kts | 317° |
| 2026-04-22 03:50 | 39.66805 | -122.88246 | 32025 ft | 441 kts | 317° |
| 2026-04-22 03:50 | 39.69152 | -122.90684 | 32006 ft | 422 kts | 317° |
| 2026-04-22 03:50 | 39.71372 | -122.92990 | 31914 ft | 407 kts | 317° |
| 2026-04-22 03:51 | 39.73550 | -122.95257 | 31649 ft | 397 kts | 317° |
| 2026-04-22 03:51 | 39.75683 | -122.97481 | 31113 ft | 388 kts | 317° |
| 2026-04-22 03:51 | 39.77792 | -122.99688 | 30446 ft | 391 kts | 317° |
| 2026-04-22 03:51 | 39.79911 | -123.01910 | 29710 ft | 393 kts | 317° |
| 2026-04-22 03:52 | 39.82077 | -123.04183 | 28857 ft | 395 kts | 317° |
| 2026-04-22 03:52 | 39.84223 | -123.06434 | 28052 ft | 397 kts | 317° |
| 2026-04-22 03:52 | 39.86378 | -123.08695 | 27245 ft | 399 kts | 318° |
| 2026-04-22 03:52 | 39.88543 | -123.10968 | 26491 ft | 400 kts | 318° |
| 2026-04-22 03:53 | 39.90711 | -123.13244 | 25734 ft | 401 kts | 318° |
| 2026-04-22 03:53 | 39.92885 | -123.15529 | 25002 ft | 402 kts | 318° |
| 2026-04-22 03:53 | 39.95040 | -123.17795 | 24288 ft | 394 kts | 319° |
| 2026-04-22 03:53 | 39.97134 | -123.19999 | 23573 ft | 389 kts | 319° |
| 2026-04-22 03:54 | 39.99226 | -123.22200 | 22737 ft | 385 kts | 319° |
| 2026-04-22 03:54 | 40.01323 | -123.24411 | 21925 ft | 389 kts | 319° |
| 2026-04-22 03:54 | 40.03446 | -123.26652 | 20933 ft | 396 kts | 319° |
| 2026-04-22 03:54 | 40.05591 | -123.28920 | 20171 ft | 397 kts | 319° |
| 2026-04-22 03:55 | 40.07731 | -123.31180 | 19530 ft | 394 kts | 319° |
| 2026-04-22 03:55 | 40.09848 | -123.33418 | 18920 ft | 389 kts | 319° |
| 2026-04-22 03:55 | 40.11939 | -123.35632 | 18354 ft | 385 kts | 319° |
| 2026-04-22 03:55 | 40.14007 | -123.37821 | 17714 ft | 381 kts | 319° |
| 2026-04-22 03:56 | 40.16046 | -123.39984 | 17143 ft | 375 kts | 319° |
| 2026-04-22 03:56 | 40.18059 | -123.42119 | 16566 ft | 370 kts | 319° |
| 2026-04-22 03:56 | 40.20046 | -123.44229 | 16018 ft | 366 kts | 319° |
| 2026-04-22 03:56 | 40.22013 | -123.46320 | 15464 ft | 362 kts | 319° |
| 2026-04-22 03:57 | 40.23958 | -123.48389 | 14925 ft | 358 kts | 319° |
| 2026-04-22 03:57 | 40.25885 | -123.50440 | 14385 ft | 355 kts | 319° |
| 2026-04-22 03:57 | 40.27791 | -123.52472 | 13853 ft | 352 kts | 318° |
| 2026-04-22 03:57 | 40.29684 | -123.54490 | 13264 ft | 349 kts | 318° |
| 2026-04-22 03:58 | 40.31550 | -123.56483 | 12723 ft | 343 kts | 319° |
| 2026-04-22 03:58 | 40.33389 | -123.58440 | 12228 ft | 339 kts | 318° |
| 2026-04-22 03:58 | 40.35205 | -123.60387 | 11681 ft | 335 kts | 318° |
| 2026-04-22 03:58 | 40.37001 | -123.62306 | 11192 ft | 331 kts | 319° |
| 2026-04-22 03:59 | 40.38783 | -123.64208 | 10696 ft | 329 kts | 319° |
| 2026-04-22 03:59 | 40.40512 | -123.66059 | 10574 ft | 313 kts | 318° |
| 2026-04-22 03:59 | 40.42155 | -123.67820 | 10430 ft | 296 kts | 318° |
| 2026-04-22 03:59 | 40.43721 | -123.69500 | 10309 ft | 288 kts | 318° |
| 2026-04-22 04:00 | 40.45263 | -123.71157 | 10196 ft | 285 kts | 318° |
| 2026-04-22 04:00 | 40.46781 | -123.72789 | 10085 ft | 278 kts | 318° |
| 2026-04-22 04:00 | 40.48259 | -123.74377 | 9824 ft | 274 kts | 318° |
| 2026-04-22 04:00 | 40.49730 | -123.75959 | 9507 ft | 272 kts | 318° |
| 2026-04-22 04:01 | 40.51190 | -123.77530 | 9171 ft | 271 kts | 318° |
| 2026-04-22 04:01 | 40.52642 | -123.79094 | 8852 ft | 269 kts | 318° |
| 2026-04-22 04:01 | 40.54086 | -123.80648 | 8549 ft | 267 kts | 318° |
| 2026-04-22 04:01 | 40.55523 | -123.82191 | 8243 ft | 267 kts | 319° |
| 2026-04-22 04:02 | 40.57090 | -123.83514 | 7909 ft | 268 kts | 330° |
| 2026-04-22 04:02 | 40.58757 | -123.84606 | 7581 ft | 266 kts | 332° |
| 2026-04-22 04:02 | 40.60417 | -123.85660 | 7274 ft | 262 kts | 332° |
| 2026-04-22 04:02 | 40.62047 | -123.86708 | 6976 ft | 260 kts | 331° |
| 2026-04-22 04:03 | 40.63670 | -123.87771 | 6666 ft | 261 kts | 331° |
| 2026-04-22 04:03 | 40.65292 | -123.88850 | 6362 ft | 261 kts | 331° |
| 2026-04-22 04:03 | 40.66895 | -123.89922 | 6061 ft | 255 kts | 331° |
| 2026-04-22 04:03 | 40.68439 | -123.90956 | 5875 ft | 242 kts | 330° |
| 2026-04-22 04:04 | 40.69898 | -123.91940 | 5737 ft | 229 kts | 330° |
| 2026-04-22 04:04 | 40.71315 | -123.92846 | 5489 ft | 224 kts | 331° |
| 2026-04-22 04:04 | 40.72685 | -123.93779 | 5227 ft | 219 kts | 330° |
| 2026-04-22 04:04 | 40.73570 | -123.94386 | 5058 ft | 214 kts | 330° |
| 2026-04-22 04:05 | 40.74869 | -123.95271 | 4817 ft | 206 kts | 330° |
| 2026-04-22 04:05 | 40.76117 | -123.96126 | 4561 ft | 199 kts | 332° |
| 2026-04-22 04:05 | 40.77341 | -123.96896 | 4333 ft | 191 kts | 332° |
| 2026-04-22 04:05 | 40.78510 | -123.97659 | 4111 ft | 184 kts | 330° |
| 2026-04-22 04:06 | 40.79646 | -123.98424 | 3938 ft | 184 kts | 330° |
| 2026-04-22 04:06 | 40.80753 | -123.99177 | 3886 ft | 175 kts | 330° |
| 2026-04-22 04:06 | 40.81810 | -123.99897 | 3662 ft | 168 kts | 330° |
| 2026-04-22 04:06 | 40.82841 | -124.00603 | 3449 ft | 168 kts | 329° |
| 2026-04-22 04:07 | 40.83875 | -124.01307 | 3239 ft | 168 kts | 330° |
| 2026-04-22 04:07 | 40.84909 | -124.02018 | 2984 ft | 164 kts | 330° |
| 2026-04-22 04:07 | 40.85871 | -124.02675 | 2765 ft | 152 kts | 329° |
| 2026-04-22 04:07 | 40.86807 | -124.03313 | 2589 ft | 152 kts | 329° |
| 2026-04-22 04:08 | 40.87750 | -124.03960 | 2383 ft | 152 kts | 329° |
| 2026-04-22 04:08 | 40.88687 | -124.04598 | 2174 ft | 151 kts | 330° |
| 2026-04-22 04:08 | 40.89631 | -124.05242 | 1952 ft | 151 kts | 331° |
| 2026-04-22 04:08 | 40.90568 | -124.05881 | 1740 ft | 152 kts | 330° |
| 2026-04-22 04:09 | 40.91475 | -124.06504 | 1520 ft | 143 kts | 331° |
| 2026-04-22 04:09 | 40.92350 | -124.07100 | 1298 ft | 141 kts | 331° |
| 2026-04-22 04:09 | 40.93216 | -124.07692 | 1124 ft | 141 kts | 331° |
| 2026-04-22 04:09 | 40.94099 | -124.08295 | 911 ft | 142 kts | 332° |
| 2026-04-22 04:10 | 40.94973 | -124.08889 | 736 ft | 140 kts | 331° |
| 2026-04-22 04:10 | 40.95841 | -124.09487 | 556 ft | 142 kts | 332° |
| 2026-04-22 04:10 | 40.96726 | -124.10089 | 328 ft | 143 kts | 333° |
| 2026-04-22 04:10 | 40.97585 | -124.10674 | 216 ft | 126 kts | 333° |
| 2026-04-22 04:11 | 40.98171 | -124.11070 | 200 ft | 63 kts | 332° |
| 2026-04-22 04:11 | 40.98422 | -124.11241 | 196 ft | 22 kts | 332° |
| 2026-04-22 04:11 | 40.98496 | -124.11301 | 194 ft | 11 kts | 309° |
| 2026-04-22 04:11 | 40.98462 | -124.11361 | 196 ft | 10 kts | 179° |
| 2026-04-22 04:12 | 40.98393 | -124.11343 | 204 ft | 10 kts | 161° |
| 2026-04-22 04:12 | 40.98331 | -124.11304 | 199 ft | 10 kts | 152° |
| 2026-04-22 04:12 | 40.98271 | -124.11261 | 202 ft | 11 kts | 152° |
| 2026-04-22 04:12 | 40.98196 | -124.11209 | 205 ft | 14 kts | 153° |
| 2026-04-22 04:13 | 40.98103 | -124.11147 | 206 ft | 16 kts | 153° |
| 2026-04-22 04:13 | 40.98003 | -124.11079 | 213 ft | 16 kts | 152° |
| 2026-04-22 04:13 | 40.97908 | -124.11014 | 208 ft | 15 kts | 154° |
| 2026-04-22 04:13 | 40.97817 | -124.10953 | 213 ft | 15 kts | 151° |
| 2026-04-22 04:14 | 40.97730 | -124.10891 | 216 ft | 14 kts | 152° |
| 2026-04-22 04:14 | 40.97646 | -124.10835 | 215 ft | 13 kts | 153° |
| 2026-04-22 04:14 | 40.97564 | -124.10781 | 213 ft | 13 kts | 153° |
| 2026-04-22 04:14 | 40.97486 | -124.10728 | 217 ft | 13 kts | 153° |
| 2026-04-22 04:15 | 40.97409 | -124.10676 | 217 ft | 12 kts | 153° |
| 2026-04-22 04:15 | 40.97337 | -124.10628 | 219 ft | 10 kts | 154° |
| 2026-04-22 04:15 | 40.97286 | -124.10626 | 219 ft | 8 kts | 231° |
| 2026-04-22 04:15 | 40.97238 | -124.10645 | 221 ft | 8 kts | 159° |
| 2026-04-22 04:16 | 40.97190 | -124.10616 | 220 ft | 8 kts | 156° |
| 2026-04-22 04:16 | 40.97102 | -124.10555 | 223 ft | 7 kts | 148° |
| 2026-04-22 04:16 | 40.97072 | -124.10564 | 222 ft | 4 kts | 237° |
| 2026-04-22 04:17 | 40.97069 | -124.10570 | 223 ft | 0 kts | 237° |